Time;durP1;ratioP1;P1;durP2;ratioP2;P2;SDS_P1;SDS_P2;PMS_P1;PMS_P2;Temp;Humidity;BMP_temperature;BMP_pressure;BME280_temperature;BME280_humidity;BME280_pressure;Samples;Min_cycle;Max_cycle;Signal;HPM_P1;HPM_P2
2021/11/03 00:00:44;;;;;;;6.38;2.75;;;7.30;99.90;;;;;;4952120;28;20055;-65
2021/11/03 00:03:12;;;;;;;7.28;3.28;;;7.30;99.90;;;;;;4952302;29;20055;-66
2021/11/03 00:05:45;;;;;;;4.47;2.88;;;7.20;99.90;;;;;;4951209;28;20039;-66
2021/11/03 00:08:19;;;;;;;4.35;2.60;;;7.10;99.90;;;;;;4952151;28;20116;-66
2021/11/03 00:10:49;;;;;;;6.07;3.08;;;7.10;99.90;;;;;;4951787;28;20039;-66
2021/11/03 00:13:19;;;;;;;6.05;2.95;;;7.00;99.90;;;;;;4952360;28;20087;-66
2021/11/03 00:15:47;;;;;;;7.35;3.30;;;6.90;99.90;;;;;;4952361;28;20561;-66
2021/11/03 00:18:14;;;;;;;6.18;3.20;;;6.90;99.90;;;;;;4951780;28;20043;-66
2021/11/03 00:20:42;;;;;;;5.57;3.30;;;6.80;99.90;;;;;;4952224;29;20051;-66
2021/11/03 00:23:11;;;;;;;5.30;3.13;;;6.70;99.90;;;;;;4951810;28;20137;-67
2021/11/03 00:25:40;;;;;;;4.70;2.67;;;6.70;99.90;;;;;;4951732;29;20510;-66
2021/11/03 00:28:08;;;;;;;5.43;3.00;;;6.60;99.90;;;;;;4953500;28;20130;-66
2021/11/03 00:30:36;;;;;;;3.95;2.58;;;6.50;99.90;;;;;;4955206;28;20328;-66
2021/11/03 00:33:04;;;;;;;5.32;3.10;;;6.40;99.90;;;;;;4939007;28;20049;-66
2021/11/03 00:35:32;;;;;;;5.28;2.60;;;6.30;99.90;;;;;;4950720;28;20478;-66
2021/11/03 00:37:59;;;;;;;4.65;2.78;;;6.20;99.90;;;;;;4948685;28;20073;-66
2021/11/03 00:40:27;;;;;;;4.80;2.88;;;6.20;99.90;;;;;;4941920;29;20475;-66
2021/11/03 00:42:54;;;;;;;6.07;2.72;;;6.10;99.90;;;;;;4938104;29;20609;-66
2021/11/03 00:45:22;;;;;;;4.93;2.55;;;6.00;99.90;;;;;;4942807;29;20051;-65
2021/11/03 00:47:52;;;;;;;4.72;2.78;;;5.90;99.90;;;;;;4942656;29;20043;-66
2021/11/03 00:50:21;;;;;;;6.30;3.70;;;5.90;99.90;;;;;;4959704;28;20390;-66
2021/11/03 00:52:50;;;;;;;5.47;2.78;;;5.90;99.90;;;;;;4957139;28;20080;-66
2021/11/03 00:55:19;;;;;;;3.80;2.58;;;5.80;99.90;;;;;;4954771;28;20051;-66
2021/11/03 00:57:47;;;;;;;4.82;2.80;;;5.80;99.90;;;;;;4941056;28;20460;-66
2021/11/03 01:00:16;;;;;;;4.10;2.80;;;5.80;99.90;;;;;;4954238;28;20403;-66
2021/11/03 01:02:44;;;;;;;7.20;3.13;;;5.80;99.90;;;;;;4953385;28;20043;-66
2021/11/03 01:05:14;;;;;;;5.15;3.05;;;5.80;99.90;;;;;;4937766;29;20062;-66
2021/11/03 01:07:42;;;;;;;4.65;2.80;;;5.70;99.90;;;;;;4936600;29;20082;-66
2021/11/03 01:10:11;;;;;;;4.68;3.13;;;5.70;99.90;;;;;;4954157;29;20054;-66
2021/11/03 01:12:39;;;;;;;5.95;3.30;;;5.80;99.90;;;;;;4954824;29;20043;-66
2021/11/03 01:15:12;;;;;;;5.15;2.90;;;5.70;99.90;;;;;;4955311;28;20154;-66
2021/11/03 01:17:40;;;;;;;5.40;3.30;;;5.70;99.90;;;;;;4952949;28;20050;-66
2021/11/03 01:20:10;;;;;;;6.55;3.53;;;5.70;99.90;;;;;;4954596;29;20418;-66
2021/11/03 01:22:37;;;;;;;6.78;3.35;;;5.80;99.90;;;;;;4941388;29;20130;-66
2021/11/03 01:25:07;;;;;;;5.65;3.35;;;5.80;99.90;;;;;;4954230;28;20047;-66
2021/11/03 01:27:35;;;;;;;6.72;3.80;;;5.80;99.90;;;;;;4954148;28;20047;-66
2021/11/03 01:30:06;;;;;;;6.90;3.67;;;5.70;99.90;;;;;;4945520;29;20046;-66
2021/11/03 01:32:33;;;;;;;5.43;3.45;;;5.70;99.90;;;;;;4951037;28;20035;-65
2021/11/03 01:35:01;;;;;;;5.82;3.83;;;5.70;99.90;;;;;;4955155;28;20043;-65
2021/11/03 01:37:29;;;;;;;6.72;3.88;;;5.70;99.90;;;;;;4959494;28;20093;-66
2021/11/03 01:39:56;;;;;;;6.85;4.15;;;5.70;99.90;;;;;;4953842;28;20047;-66
2021/11/03 01:42:24;;;;;;;5.40;3.63;;;5.70;99.90;;;;;;4935767;29;20043;-66
2021/11/03 01:44:52;;;;;;;6.10;4.15;;;5.70;99.90;;;;;;4961944;28;20128;-66
2021/11/03 01:47:40;;;;;;;6.63;4.40;;;5.70;99.90;;;;;;4949811;28;20039;-66
2021/11/03 01:50:15;;;;;;;7.18;4.35;;;5.70;99.90;;;;;;4951436;29;20435;-66
2021/11/03 01:52:45;;;;;;;7.30;4.97;;;5.70;99.90;;;;;;4953602;28;20050;-66
2021/11/03 01:55:14;;;;;;;8.57;5.15;;;5.70;99.90;;;;;;4949771;29;20186;-66
2021/11/03 01:57:49;;;;;;;7.35;4.72;;;5.70;99.90;;;;;;4953408;29;20043;-66
2021/11/03 02:00:22;;;;;;;11.60;5.18;;;5.60;99.90;;;;;;4956698;28;20043;-66
2021/11/03 02:03:02;;;;;;;8.40;5.47;;;5.60;99.90;;;;;;4954248;28;20083;-66
2021/11/03 02:05:30;;;;;;;9.23;5.72;;;5.60;99.90;;;;;;4947337;28;20118;-66
2021/11/03 02:08:00;;;;;;;9.05;6.30;;;5.60;99.90;;;;;;4953925;28;20059;-66
2021/11/03 02:10:28;;;;;;;9.63;6.28;;;5.60;99.90;;;;;;4954221;28;20155;-66
2021/11/03 02:12:57;;;;;;;10.73;6.38;;;5.50;99.90;;;;;;4954319;28;20855;-66
2021/11/03 02:15:27;;;;;;;9.45;6.55;;;5.50;99.90;;;;;;4950466;28;20419;-66
2021/11/03 02:17:55;;;;;;;8.60;6.50;;;5.50;99.90;;;;;;4966197;28;20574;-66
2021/11/03 02:20:25;;;;;;;10.75;7.00;;;5.50;99.90;;;;;;4951753;29;20117;-66
2021/11/03 02:23:26;;;;;;;12.63;7.53;;;5.50;99.90;;;;;;4953210;29;20074;-66
2021/11/03 02:26:04;;;;;;;11.20;7.28;;;5.60;99.90;;;;;;4954998;28;20055;-66
2021/11/03 02:28:34;;;;;;;12.73;7.63;;;5.60;99.90;;;;;;4937814;29;20040;-66
2021/11/03 02:31:02;;;;;;;11.73;8.07;;;5.60;99.90;;;;;;4949055;28;20163;-66
2021/11/03 02:33:31;;;;;;;12.27;8.07;;;5.50;99.90;;;;;;4952113;28;20368;-66
2021/11/03 02:36:04;;;;;;;11.68;8.20;;;5.50;99.90;;;;;;4951576;29;20055;-66
2021/11/03 02:38:41;;;;;;;11.57;7.95;;;5.50;99.90;;;;;;4953737;28;20057;-66
2021/11/03 02:41:16;;;;;;;12.48;8.43;;;5.40;99.90;;;;;;4955713;28;20043;-66
2021/11/03 02:43:50;;;;;;;14.63;9.93;;;5.40;99.90;;;;;;4940898;29;20081;-66
2021/11/03 02:46:19;;;;;;;15.15;10.43;;;5.30;99.90;;;;;;4942415;29;20102;-66
2021/11/03 02:48:47;;;;;;;14.18;10.10;;;5.30;99.90;;;;;;4952856;28;20027;-66
2021/11/03 02:51:43;;;;;;;16.95;11.00;;;5.20;99.90;;;;;;4938668;28;20109;-66
2021/11/03 02:54:19;;;;;;;17.75;10.55;;;5.20;99.90;;;;;;4949214;28;20058;-66
2021/11/03 02:56:53;;;;;;;15.50;11.05;;;5.20;99.90;;;;;;4935031;29;20043;-66
2021/11/03 02:59:25;;;;;;;15.38;10.73;;;5.10;99.90;;;;;;4951574;29;20093;-66
2021/11/03 03:01:59;;;;;;;19.40;11.00;;;5.10;99.90;;;;;;4916773;29;20055;-66
2021/11/03 03:04:38;;;;;;;16.73;11.30;;;5.20;99.90;;;;;;4950922;29;20421;-66
2021/11/03 03:07:07;;;;;;;17.25;11.45;;;5.20;99.90;;;;;;4936546;28;20043;-66
2021/11/03 03:09:35;;;;;;;16.98;11.57;;;5.20;99.90;;;;;;4950139;28;20090;-66
2021/11/03 03:12:06;;;;;;;16.48;11.30;;;5.20;99.90;;;;;;4959325;28;20145;-65
2021/11/03 03:14:41;;;;;;;17.45;11.60;;;5.20;99.90;;;;;;4947392;29;20121;-66
2021/11/03 03:17:12;;;;;;;16.63;11.27;;;5.20;99.90;;;;;;4939305;29;20154;-66
2021/11/03 03:19:41;;;;;;;17.83;12.07;;;5.20;99.90;;;;;;4951528;29;20376;-66
2021/11/03 03:22:10;;;;;;;19.42;12.77;;;5.20;99.90;;;;;;4946298;28;20608;-66
2021/11/03 03:24:38;;;;;;;20.08;13.00;;;5.20;99.90;;;;;;4956732;28;20141;-66
2021/11/03 03:27:06;;;;;;;19.48;12.80;;;5.10;99.90;;;;;;4927674;29;20098;-66
2021/11/03 03:29:34;;;;;;;19.33;13.23;;;5.10;99.90;;;;;;4949366;28;20075;-66
2021/11/03 03:32:02;;;;;;;21.55;13.07;;;5.10;99.90;;;;;;4942968;29;20039;-66
2021/11/03 03:34:30;;;;;;;20.75;12.57;;;5.10;99.90;;;;;;4940952;29;20103;-66
2021/11/03 03:36:57;;;;;;;22.27;13.90;;;5.10;99.90;;;;;;4939390;29;20043;-66
2021/11/03 03:39:27;;;;;;;20.10;13.73;;;5.10;99.90;;;;;;4954805;28;20433;-65
2021/11/03 03:42:08;;;;;;;19.70;13.02;;;5.10;99.90;;;;;;4951892;29;20467;-66
2021/11/03 03:44:36;;;;;;;22.20;13.20;;;5.10;99.90;;;;;;4947792;28;20059;-65
2021/11/03 03:47:05;;;;;;;21.35;13.75;;;5.10;99.90;;;;;;4943610;29;20482;-66
2021/11/03 03:49:33;;;;;;;21.90;14.52;;;5.10;99.90;;;;;;4948800;29;20046;-66
2021/11/03 03:52:02;;;;;;;24.88;15.50;;;5.10;99.90;;;;;;4930807;29;20070;-66
2021/11/03 03:54:29;;;;;;;22.38;14.90;;;5.20;99.90;;;;;;4934784;29;20106;-66
2021/11/03 03:56:57;;;;;;;24.17;15.30;;;5.20;99.90;;;;;;4951139;28;20049;-66
2021/11/03 03:59:25;;;;;;;22.75;14.93;;;5.20;99.90;;;;;;4933977;29;20047;-66
2021/11/03 04:01:53;;;;;;;24.73;15.85;;;5.20;99.90;;;;;;4952428;28;20492;-66
2021/11/03 04:04:21;;;;;;;23.77;15.15;;;5.30;99.90;;;;;;4955181;28;20071;-66
2021/11/03 04:06:48;;;;;;;24.75;14.55;;;5.30;99.90;;;;;;4948633;29;20034;-66
2021/11/03 04:09:16;;;;;;;22.98;14.65;;;5.30;99.90;;;;;;4962641;28;20125;-66
2021/11/03 04:11:43;;;;;;;20.65;13.65;;;5.30;99.90;;;;;;4953754;29;20118;-67
2021/11/03 04:14:16;;;;;;;22.92;14.43;;;5.30;99.90;;;;;;4939894;28;20146;-66
2021/11/03 04:16:44;;;;;;;23.17;14.25;;;5.40;99.90;;;;;;4954306;29;20055;-66
2021/11/03 04:19:11;;;;;;;22.95;14.65;;;5.40;99.90;;;;;;4944719;29;20046;-66
2021/11/03 04:21:39;;;;;;;20.80;13.88;;;5.40;99.90;;;;;;4946520;29;20073;-65
2021/11/03 04:24:21;;;;;;;22.20;13.80;;;5.50;99.90;;;;;;4948364;29;20387;-65
2021/11/03 04:26:50;;;;;;;19.70;13.27;;;5.50;99.90;;;;;;4948754;28;20114;-65
2021/11/03 04:29:19;;;;;;;20.25;12.80;;;5.50;99.90;;;;;;4948301;29;20102;-65
2021/11/03 04:31:47;;;;;;;23.92;13.95;;;5.50;99.90;;;;;;4943643;29;20050;-65
2021/11/03 04:34:16;;;;;;;18.52;12.45;;;5.60;99.90;;;;;;4938238;29;20047;-66
2021/11/03 04:36:45;;;;;;;19.75;12.55;;;5.60;99.90;;;;;;4954824;29;20125;-66
2021/11/03 04:39:13;;;;;;;21.85;13.07;;;5.60;99.90;;;;;;4941986;29;20243;-66
2021/11/03 04:41:44;;;;;;;19.43;12.73;;;5.60;99.90;;;;;;4949414;29;20501;-66
2021/11/03 04:44:13;;;;;;;21.27;13.98;;;5.60;99.90;;;;;;4934690;29;20483;-66
2021/11/03 04:46:41;;;;;;;25.77;15.98;;;5.70;99.90;;;;;;4959180;28;20035;-66
2021/11/03 04:49:09;;;;;;;26.70;15.75;;;5.70;99.90;;;;;;4930445;28;20098;-66
2021/11/03 04:51:38;;;;;;;21.30;14.65;;;5.70;99.90;;;;;;4936952;29;20073;-65
2021/11/03 04:54:08;;;;;;;19.17;12.43;;;5.70;99.90;;;;;;4938321;29;20566;-66
2021/11/03 04:56:36;;;;;;;21.02;12.43;;;5.70;99.90;;;;;;4938038;29;20110;-66
2021/11/03 04:59:05;;;;;;;22.30;14.05;;;5.80;99.90;;;;;;4962731;28;20418;-66
2021/11/03 05:01:32;;;;;;;19.98;13.90;;;5.80;99.90;;;;;;4953125;28;20050;-66
2021/11/03 05:04:01;;;;;;;21.58;14.23;;;5.70;99.90;;;;;;4950966;28;20039;-66
2021/11/03 05:06:31;;;;;;;20.40;12.88;;;5.70;99.90;;;;;;4949976;28;20126;-66
2021/11/03 05:09:04;;;;;;;19.60;12.35;;;5.80;99.90;;;;;;4947839;28;20105;-66
2021/11/03 05:11:32;;;;;;;20.90;12.68;;;5.70;99.90;;;;;;4955475;28;20047;-66
2021/11/03 05:14:00;;;;;;;23.40;15.57;;;5.80;99.90;;;;;;4959328;28;20491;-66
2021/11/03 05:16:29;;;;;;;21.15;13.60;;;5.80;99.90;;;;;;4946756;29;20075;-66
2021/11/03 05:18:59;;;;;;;19.63;12.65;;;5.80;99.90;;;;;;4959813;28;20063;-66
2021/11/03 05:21:31;;;;;;;18.90;12.70;;;5.80;99.90;;;;;;4965618;28;20395;-66
2021/11/03 05:23:59;;;;;;;21.00;12.50;;;5.80;99.90;;;;;;4958067;28;20086;-66
2021/11/03 05:26:27;;;;;;;20.88;12.90;;;5.80;99.90;;;;;;4958573;28;20079;-66
2021/11/03 05:28:56;;;;;;;19.33;12.52;;;5.80;99.90;;;;;;4962807;28;20078;-66
2021/11/03 05:31:25;;;;;;;20.73;13.10;;;5.70;99.90;;;;;;4945357;29;20398;-66
2021/11/03 05:33:53;;;;;;;21.05;12.95;;;5.70;99.90;;;;;;4953748;28;20048;-66
2021/11/03 05:36:24;;;;;;;19.83;13.15;;;5.80;99.90;;;;;;4956156;28;20062;-66
2021/11/03 05:38:52;;;;;;;20.25;12.88;;;5.80;99.90;;;;;;4953872;29;20474;-66
2021/11/03 05:41:21;;;;;;;19.35;12.75;;;5.80;99.90;;;;;;4954553;28;20050;-66
2021/11/03 05:43:48;;;;;;;21.08;14.15;;;5.80;99.90;;;;;;4943726;29;20418;-66
2021/11/03 05:46:20;;;;;;;25.15;14.98;;;5.80;99.90;;;;;;4953199;29;20051;-66
2021/11/03 05:48:49;;;;;;;22.85;14.80;;;5.80;99.90;;;;;;4952326;28;20043;-67
2021/11/03 05:51:18;;;;;;;20.55;13.32;;;5.80;99.90;;;;;;4941230;28;20074;-66
2021/11/03 05:53:46;;;;;;;23.27;14.40;;;5.80;99.90;;;;;;4952837;28;20517;-66
2021/11/03 05:56:13;;;;;;;21.40;13.18;;;5.80;99.90;;;;;;4953688;29;20046;-66
2021/11/03 05:58:40;;;;;;;24.83;15.50;;;5.90;99.90;;;;;;4953136;29;20047;-66
2021/11/03 06:01:08;;;;;;;25.45;15.45;;;5.90;99.90;;;;;;4952685;28;20134;-66
2021/11/03 06:03:36;;;;;;;23.73;15.55;;;5.90;99.90;;;;;;4943333;29;20040;-65
2021/11/03 06:06:04;;;;;;;26.63;15.73;;;6.00;99.90;;;;;;4953837;29;20039;-65
2021/11/03 06:08:31;;;;;;;26.52;15.90;;;6.00;99.90;;;;;;4947176;29;20058;-66
2021/11/03 06:10:59;;;;;;;24.23;15.35;;;6.00;99.90;;;;;;4953598;29;20039;-66
2021/11/03 06:13:27;;;;;;;22.65;13.93;;;6.00;99.90;;;;;;4952311;28;20070;-66
2021/11/03 06:15:56;;;;;;;26.77;15.73;;;6.00;99.90;;;;;;4944507;29;20048;-67
2021/11/03 06:18:24;;;;;;;22.73;14.63;;;6.00;99.90;;;;;;4949256;28;20066;-68
2021/11/03 06:20:51;;;;;;;21.17;14.02;;;6.10;99.90;;;;;;4951831;29;20047;-68
2021/11/03 06:23:19;;;;;;;20.73;12.07;;;6.10;99.90;;;;;;4952803;28;20488;-68
2021/11/03 06:25:47;;;;;;;20.90;13.23;;;6.10;99.90;;;;;;4959404;28;20042;-68
2021/11/03 06:28:14;;;;;;;20.95;13.25;;;6.10;99.90;;;;;;4962281;28;20089;-68
2021/11/03 06:30:42;;;;;;;20.60;11.68;;;6.10;99.90;;;;;;4952901;28;20040;-68
2021/11/03 06:33:09;;;;;;;20.95;11.98;;;6.10;99.90;;;;;;4953063;29;20038;-68
2021/11/03 06:35:37;;;;;;;19.77;11.90;;;6.00;99.90;;;;;;4951650;28;20050;-67
2021/11/03 06:38:07;;;;;;;17.42;10.95;;;6.00;99.90;;;;;;4947746;28;20050;-68
2021/11/03 06:40:35;;;;;;;21.63;13.30;;;6.00;99.90;;;;;;4964898;28;20090;-68
2021/11/03 06:43:04;;;;;;;20.95;12.50;;;6.00;99.90;;;;;;4957285;28;20061;-68
2021/11/03 06:45:32;;;;;;;24.13;13.38;;;6.10;99.90;;;;;;4943327;28;20403;-68
2021/11/03 06:48:01;;;;;;;21.83;12.82;;;6.10;99.90;;;;;;4948570;29;20490;-68
2021/11/03 06:50:32;;;;;;;18.92;10.88;;;6.20;99.90;;;;;;4940963;29;20047;-69
2021/11/03 06:53:00;;;;;;;17.48;10.18;;;6.20;99.90;;;;;;4953006;28;20039;-68
2021/11/03 06:55:28;;;;;;;18.52;10.02;;;6.20;99.90;;;;;;4952996;28;20491;-68
2021/11/03 06:57:57;;;;;;;16.23;9.35;;;6.20;99.90;;;;;;4949586;29;20043;-68
2021/11/03 07:00:29;;;;;;;16.50;9.75;;;6.20;99.90;;;;;;4948113;29;20748;-67
2021/11/03 07:02:58;;;;;;;14.77;8.93;;;6.20;99.90;;;;;;4946502;28;20114;-68
2021/11/03 07:05:26;;;;;;;15.45;9.35;;;6.20;99.90;;;;;;4945009;29;20044;-69
2021/11/03 07:07:54;;;;;;;16.20;9.50;;;6.30;99.90;;;;;;4939534;29;20126;-68
2021/11/03 07:10:25;;;;;;;15.90;9.43;;;6.30;99.90;;;;;;4929323;28;21271;-68
2021/11/03 07:12:52;;;;;;;19.98;12.15;;;6.40;99.90;;;;;;4954613;28;20126;-68
2021/11/03 07:15:21;;;;;;;17.65;9.38;;;6.40;99.90;;;;;;4952615;29;20478;-68
2021/11/03 07:17:49;;;;;;;13.70;8.85;;;6.50;99.90;;;;;;4953706;29;20134;-71
2021/11/03 07:20:16;;;;;;;13.43;8.07;;;6.60;99.90;;;;;;4941085;29;20139;-69
2021/11/03 07:22:44;;;;;;;15.45;8.60;;;6.70;99.90;;;;;;4950806;29;20518;-69
2021/11/03 07:25:17;;;;;;;16.35;9.20;;;6.80;99.90;;;;;;4940327;29;20785;-69
2021/11/03 07:27:46;;;;;;;14.98;9.27;;;6.90;99.90;;;;;;4939585;28;20126;-69
2021/11/03 07:30:15;;;;;;;16.08;9.23;;;7.00;99.90;;;;;;4943069;28;20047;-69
2021/11/03 07:32:42;;;;;;;14.52;8.80;;;7.10;99.90;;;;;;4939411;29;20039;-68
2021/11/03 07:35:10;;;;;;;23.75;12.02;;;7.10;99.90;;;;;;4944230;28;20420;-69
2021/11/03 07:37:40;;;;;;;15.95;9.98;;;7.10;99.90;;;;;;4938843;28;20426;-69
2021/11/03 07:40:13;;;;;;;16.83;9.30;;;7.10;99.90;;;;;;4954541;28;20494;-70
2021/11/03 07:42:40;;;;;;;;;;;7.20;99.90;;;;;;4935236;29;20062;-68
2021/11/03 07:45:09;;;;;;;14.85;7.82;;;7.20;99.90;;;;;;4951315;28;19922;-68
2021/11/03 07:47:37;;;;;;;13.32;8.35;;;7.20;99.90;;;;;;4939536;29;20150;-68
2021/11/03 07:50:08;;;;;;;15.70;9.13;;;7.30;99.90;;;;;;4942176;29;20047;-68
2021/11/03 07:52:35;;;;;;;15.43;9.05;;;7.40;99.90;;;;;;4950609;28;20128;-69
2021/11/03 07:55:03;;;;;;;14.23;8.20;;;7.40;99.90;;;;;;4935529;28;20122;-69
2021/11/03 07:57:30;;;;;;;12.63;7.65;;;7.40;99.90;;;;;;4952545;28;20043;-69
2021/11/03 07:59:58;;;;;;;11.48;7.45;;;7.40;99.90;;;;;;4941022;28;20075;-69
2021/11/03 08:02:25;;;;;;;11.55;7.13;;;7.50;99.90;;;;;;4944543;29;20055;-70
2021/11/03 08:04:52;;;;;;;11.32;7.30;;;7.50;99.90;;;;;;4952104;29;20043;-69
2021/11/03 08:07:22;;;;;;;12.85;7.97;;;7.50;99.90;;;;;;4951336;29;20094;-69
2021/11/03 08:09:49;;;;;;;18.48;10.85;;;7.50;99.90;;;;;;4951670;29;20079;-69
2021/11/03 08:12:19;;;;;;;17.25;10.35;;;7.50;99.90;;;;;;4949677;28;20106;-69
2021/11/03 08:14:46;;;;;;;18.65;9.52;;;7.50;99.90;;;;;;4952580;28;20045;-69
2021/11/03 08:17:16;;;;;;;13.50;7.40;;;7.60;99.90;;;;;;4951561;29;20051;-69
2021/11/03 08:19:48;;;;;;;12.52;7.47;;;7.60;99.90;;;;;;4959674;28;20043;-69
2021/11/03 08:22:20;;;;;;;12.13;7.60;;;7.70;99.90;;;;;;4948507;29;20494;-69
2021/11/03 08:24:48;;;;;;;11.70;7.57;;;7.90;99.90;;;;;;4952729;28;20058;-69
2021/11/03 08:27:17;;;;;;;11.65;7.07;;;8.10;99.90;;;;;;4945153;28;20055;-69
2021/11/03 08:29:46;;;;;;;12.23;7.40;;;8.30;99.90;;;;;;4951471;28;20036;-69
2021/11/03 08:32:20;;;;;;;11.00;6.50;;;8.50;99.90;;;;;;4936033;29;20040;-69
2021/11/03 08:34:49;;;;;;;12.35;7.93;;;8.60;99.90;;;;;;4935280;29;20065;-69
2021/11/03 08:37:20;;;;;;;12.27;7.55;;;8.70;99.90;;;;;;4952261;28;20051;-69
2021/11/03 08:39:51;;;;;;;10.90;7.35;;;8.70;99.90;;;;;;4951575;28;20052;-69
2021/11/03 08:42:19;;;;;;;11.43;7.17;;;8.70;99.90;;;;;;4952298;28;20054;-69
2021/11/03 08:44:50;;;;;;;11.70;7.07;;;8.70;99.90;;;;;;4958888;28;20378;-69
2021/11/03 08:47:18;;;;;;;10.40;6.53;;;8.60;99.90;;;;;;4951203;28;20467;-69
2021/11/03 08:49:46;;;;;;;11.38;6.97;;;8.70;99.90;;;;;;4954815;28;20062;-69
2021/11/03 08:52:14;;;;;;;11.57;6.90;;;8.70;99.90;;;;;;4954828;28;20069;-68
2021/11/03 08:54:45;;;;;;;13.50;7.80;;;8.80;99.90;;;;;;4958936;28;20414;-69
2021/11/03 08:57:23;;;;;;;14.73;7.93;;;8.90;99.90;;;;;;4952094;29;20139;-69
2021/11/03 08:59:54;;;;;;;10.27;7.18;;;9.00;99.90;;;;;;4944795;29;20137;-69
2021/11/03 09:02:23;;;;;;;10.90;6.40;;;9.00;99.90;;;;;;4954228;28;20047;-69
2021/11/03 09:04:53;;;;;;;14.00;7.00;;;9.20;99.90;;;;;;4955208;28;20403;-69
2021/11/03 09:07:20;;;;;;;9.65;6.70;;;9.40;99.90;;;;;;4954503;28;20039;-69
2021/11/03 09:09:47;;;;;;;10.20;6.55;;;9.50;99.90;;;;;;4955705;28;20047;-68
2021/11/03 09:12:18;;;;;;;9.73;6.03;;;9.60;99.90;;;;;;4947223;28;20040;-68
2021/11/03 09:14:45;;;;;;;10.63;6.25;;;9.90;99.90;;;;;;4955155;28;20043;-68
2021/11/03 09:17:13;;;;;;;9.55;6.60;;;10.10;99.90;;;;;;4952893;28;20126;-68
2021/11/03 09:19:41;;;;;;;12.15;6.72;;;10.20;99.90;;;;;;4938586;29;20782;-69
2021/11/03 09:22:08;;;;;;;9.07;5.90;;;10.40;99.90;;;;;;4954380;29;20473;-68
2021/11/03 09:24:36;;;;;;;8.88;6.40;;;10.50;99.90;;;;;;4954681;28;20062;-69
2021/11/03 09:27:12;;;;;;;10.95;6.43;;;10.70;99.90;;;;;;4954632;29;20043;-69
2021/11/03 09:29:42;;;;;;;23.30;12.70;;;10.80;99.90;;;;;;4937340;29;20572;-69
2021/11/03 09:32:12;;;;;;;11.57;7.30;;;10.90;99.90;;;;;;4953168;29;20047;-69
2021/11/03 09:34:48;;;;;;;9.40;6.68;;;11.10;99.90;;;;;;4936677;29;20518;-69
2021/11/03 09:37:20;;;;;;;8.20;5.78;;;11.30;99.90;;;;;;4910806;29;20065;-69
2021/11/03 09:39:53;;;;;;;9.00;6.30;;;11.50;99.90;;;;;;4941864;29;20055;-69
2021/11/03 09:42:23;;;;;;;8.50;5.63;;;11.60;99.90;;;;;;4943377;29;20043;-69
2021/11/03 09:44:53;;;;;;;7.50;5.60;;;11.60;99.90;;;;;;4954513;28;20051;-69
2021/11/03 09:47:29;;;;;;;10.45;6.47;;;11.60;99.90;;;;;;4939667;29;20040;-69
2021/11/03 09:50:07;;;;;;;7.82;5.72;;;11.70;99.90;;;;;;4939116;29;20518;-69
2021/11/03 09:52:36;;;;;;;12.25;6.20;;;11.60;99.90;;;;;;4945147;29;20047;-69
2021/11/03 09:55:29;;;;;;;13.38;6.28;;;11.50;99.90;;;;;;4953957;29;20047;-69
2021/11/03 09:58:25;;;;;;;7.88;5.68;;;11.50;99.90;;;;;;4941723;29;20502;-69
2021/11/03 10:01:00;;;;;;;8.15;5.85;;;11.50;99.90;;;;;;4965931;28;20522;-69
2021/11/03 10:04:13;;;;;;;9.52;6.53;;;11.50;99.90;;;;;;4953533;28;20083;-69
2021/11/03 10:07:11;;;;;;;10.45;6.57;;;11.40;99.90;;;;;;4949967;29;20071;-69
2021/11/03 10:09:39;;;;;;;9.05;6.43;;;11.20;99.90;;;;;;4955611;28;20181;-69
2021/11/03 10:12:12;;;;;;;11.40;6.93;;;11.20;99.90;;;;;;4938169;29;20042;-69
2021/11/03 10:14:41;;;;;;;11.00;6.70;;;11.20;99.90;;;;;;4953844;29;20053;-69
2021/11/03 10:17:17;;;;;;;8.93;6.07;;;11.20;99.90;;;;;;4953813;29;20053;-69
2021/11/03 10:19:45;;;;;;;8.52;5.68;;;11.20;99.90;;;;;;4953533;29;20039;-69
2021/11/03 10:22:18;;;;;;;8.65;6.07;;;11.40;99.90;;;;;;4954830;28;20058;-69
2021/11/03 10:25:00;;;;;;;9.50;6.80;;;11.60;99.90;;;;;;4953162;29;20584;-69
2021/11/03 10:27:29;;;;;;;9.98;6.63;;;11.90;99.90;;;;;;4953704;28;20643;-69
2021/11/03 10:30:35;;;;;;;9.73;6.60;;;12.20;99.90;;;;;;4953927;29;20043;-69
2021/11/03 10:33:28;;;;;;;7.97;6.05;;;12.80;99.90;;;;;;4952642;28;20542;-69
2021/11/03 10:35:59;;;;;;;10.45;6.15;;;14.10;99.90;;;;;;4953501;28;20039;-69
2021/11/03 10:38:38;;;;;;;7.13;5.22;;;15.60;99.90;;;;;;4953908;29;20051;-69
2021/11/03 10:41:13;;;;;;;8.98;5.75;;;16.30;99.90;;;;;;4952392;28;20067;-69
2021/11/03 10:43:43;;;;;;;7.55;5.18;;;16.20;99.90;;;;;;4941964;29;20427;-69
2021/11/03 10:46:19;;;;;;;8.98;5.55;;;16.30;99.90;;;;;;4927971;28;20061;-69
2021/11/03 10:49:11;;;;;;;7.55;5.45;;;16.20;99.90;;;;;;4964490;28;20066;-69
2021/11/03 10:51:41;;;;;;;7.72;5.28;;;15.80;99.90;;;;;;4951141;28;20048;-69
2021/11/03 10:54:16;;;;;;;7.70;5.18;;;15.50;99.90;;;;;;4937393;29;20053;-69
2021/11/03 10:57:00;;;;;;;9.93;4.97;;;15.00;99.90;;;;;;4941577;29;20480;-69
2021/11/03 10:59:30;;;;;;;7.30;5.07;;;14.70;99.90;;;;;;4952785;29;20050;-69
2021/11/03 11:02:20;;;;;;;7.10;4.75;;;14.30;99.90;;;;;;4952524;28;20470;-69
2021/11/03 11:04:49;;;;;;;8.57;5.35;;;14.10;99.90;;;;;;4951030;28;20057;-69
2021/11/03 11:07:39;;;;;;;8.23;5.13;;;14.20;99.90;;;;;;4959167;28;20039;-69
2021/11/03 11:10:22;;;;;;;7.95;4.15;;;14.80;99.90;;;;;;4953145;28;20065;-69
2021/11/03 11:12:51;;;;;;;9.27;4.60;;;15.80;99.90;;;;;;4951945;28;20040;-69
2021/11/03 11:15:27;;;;;;;8.77;5.15;;;15.90;99.90;;;;;;4952281;29;20050;-69
2021/11/03 11:18:02;;;;;;;5.20;3.22;;;15.70;99.90;;;;;;4953397;29;20054;-69
2021/11/03 11:20:42;;;;;;;7.55;4.65;;;15.20;99.90;;;;;;4952297;29;20058;-69
2021/11/03 11:23:21;;;;;;;5.43;3.33;;;14.80;99.90;;;;;;4953063;29;20061;-69
2021/11/03 11:26:23;;;;;;;5.85;3.38;;;14.40;99.90;;;;;;4952572;29;20082;-69
2021/11/03 11:29:19;;;;;;;5.85;3.20;;;14.00;99.90;;;;;;4942443;29;20051;-69
2021/11/03 11:32:04;;;;;;;6.05;3.33;;;13.80;99.90;;;;;;4951548;28;20043;-69
2021/11/03 11:34:40;;;;;;;9.77;3.78;;;13.60;99.90;;;;;;4946666;29;20055;-69
2021/11/03 11:37:36;;;;;;;6.30;3.65;;;13.50;99.90;;;;;;4950999;28;20047;-69
2021/11/03 11:40:19;;;;;;;5.00;3.30;;;13.20;99.90;;;;;;4956487;28;20054;-69
2021/11/03 11:43:01;;;;;;;4.57;2.95;;;13.20;99.90;;;;;;4945600;29;20170;-69
2021/11/03 11:45:32;;;;;;;5.13;2.78;;;13.20;99.90;;;;;;4933569;29;20043;-69
2021/11/03 11:48:16;;;;;;;6.90;4.43;;;13.20;99.90;;;;;;4945063;28;20491;-68
2021/11/03 11:50:57;;;;;;;6.88;4.28;;;13.20;99.90;;;;;;4951346;28;20121;-68
2021/11/03 11:53:33;;;;;;;8.27;4.45;;;13.00;99.90;;;;;;4950391;29;20046;-69
2021/11/03 11:56:09;;;;;;;6.72;4.70;;;12.90;99.90;;;;;;4950496;29;20470;-69
2021/11/03 11:58:39;;;;;;;8.23;4.90;;;12.80;99.90;;;;;;4952870;28;20491;-68
2021/11/03 12:01:16;;;;;;;7.75;4.93;;;12.90;99.90;;;;;;4952327;29;20537;-68
2021/11/03 12:04:03;;;;;;;6.97;3.95;;;12.80;99.90;;;;;;4949934;28;20584;-68
2021/11/03 12:06:52;;;;;;;7.32;3.85;;;12.80;99.90;;;;;;4932645;28;20059;-68
2021/11/03 12:09:32;;;;;;;5.40;3.58;;;12.80;99.90;;;;;;4951538;28;20046;-69
2021/11/03 12:12:05;;;;;;;6.10;3.75;;;12.80;99.90;;;;;;4948744;29;20430;-68
2021/11/03 12:14:45;;;;;;;6.13;3.42;;;12.90;99.90;;;;;;4951600;28;20036;-68
2021/11/03 12:17:19;;;;;;;5.03;3.35;;;12.90;99.90;;;;;;4940668;29;20044;-67
2021/11/03 12:19:55;;;;;;;5.25;3.05;;;12.90;99.90;;;;;;4951955;29;20054;-69
2021/11/03 12:22:29;;;;;;;7.82;4.07;;;12.90;99.90;;;;;;4938713;28;20138;-67
2021/11/03 12:25:14;;;;;;;9.75;5.18;;;12.80;99.90;;;;;;4954909;28;20055;-69
2021/11/03 12:27:43;;;;;;;12.48;6.20;;;12.80;99.90;;;;;;4953067;28;20071;-69
2021/11/03 12:30:18;;;;;;;10.85;6.65;;;12.70;99.90;;;;;;4954318;29;20043;-69
2021/11/03 12:32:45;;;;;;;9.38;5.07;;;12.70;99.90;;;;;;4950536;29;20046;-69
2021/11/03 12:35:18;;;;;;;5.43;3.47;;;12.80;99.90;;;;;;4949936;29;20032;-69
2021/11/03 12:37:47;;;;;;;6.68;3.20;;;12.90;99.90;;;;;;4953541;28;20403;-69
2021/11/03 12:40:37;;;;;;;4.57;2.78;;;12.90;99.90;;;;;;4954681;28;20122;-70
2021/11/03 12:43:33;;;;;;;5.25;3.05;;;12.90;99.90;;;;;;4944825;29;20043;-69
2021/11/03 12:46:09;;;;;;;6.68;4.00;;;12.90;99.90;;;;;;4945943;29;20039;-69
2021/11/03 12:48:38;;;;;;;5.75;3.33;;;12.80;99.90;;;;;;4953437;29;20047;-70
2021/11/03 12:51:30;;;;;;;5.53;3.50;;;12.80;99.90;;;;;;4952867;29;20055;-70
2021/11/03 12:54:07;;;;;;;4.78;3.28;;;12.80;99.90;;;;;;4952583;29;20176;-69
2021/11/03 12:56:38;;;;;;;7.00;3.92;;;12.90;99.90;;;;;;4952619;29;20098;-69
2021/11/03 12:59:19;;;;;;;5.60;3.35;;;12.80;99.90;;;;;;4966246;28;20480;-69
2021/11/03 13:01:51;;;;;;;6.68;4.03;;;12.80;99.90;;;;;;4944304;29;20047;-70
2021/11/03 13:04:22;;;;;;;6.97;3.72;;;12.80;99.90;;;;;;4961616;28;20126;-69
2021/11/03 13:07:24;;;;;;;6.97;3.95;;;12.80;99.90;;;;;;4947132;29;20043;-69
2021/11/03 13:09:59;;;;;;;;;;;12.70;99.90;;;;;;4951638;28;20070;-68